Time;durP1;ratioP1;P1;durP2;ratioP2;P2;SDS_P1;SDS_P2;PMS_P1;PMS_P2;Temp;Humidity;BMP_temperature;BMP_pressure;BME280_temperature;BME280_humidity;BME280_pressure;Samples;Min_cycle;Max_cycle;Signal;HPM_P1;HPM_P2
2023/04/25 00:02:13;;;;;;;1.05;0.70;;;19.90;61.60;;;;;;4974758;28;20022;-51
2023/04/25 00:04:39;;;;;;;1.83;0.75;;;19.90;61.60;;;;;;4978105;28;20034;-53
2023/04/25 00:07:05;;;;;;;0.70;0.70;;;19.90;61.60;;;;;;4975208;28;20391;-56
2023/04/25 00:09:31;;;;;;;1.00;0.90;;;19.90;61.60;;;;;;4969419;28;20026;-52
2023/04/25 00:11:56;;;;;;;1.27;0.75;;;19.90;61.60;;;;;;4970423;28;20058;-51
2023/04/25 00:14:22;;;;;;;1.38;1.13;;;19.80;61.50;;;;;;4973589;28;20073;-52
2023/04/25 00:16:48;;;;;;;2.05;1.27;;;19.80;61.50;;;;;;4976154;28;20034;-53
2023/04/25 00:19:14;;;;;;;1.08;0.80;;;19.80;61.50;;;;;;4969463;28;20046;-49
2023/04/25 00:21:40;;;;;;;1.48;0.90;;;19.90;61.50;;;;;;4984324;28;20215;-55
2023/04/25 00:24:06;;;;;;;3.03;0.95;;;19.80;61.40;;;;;;4977824;28;20554;-49
2023/04/25 00:26:33;;;;;;;1.50;1.00;;;19.80;61.50;;;;;;4976543;28;20035;-53
2023/04/25 00:28:58;;;;;;;1.48;1.35;;;19.80;61.40;;;;;;4979463;28;20550;-51
2023/04/25 00:31:24;;;;;;;1.10;0.85;;;19.80;61.40;;;;;;4978011;28;20027;-51
2023/04/25 00:33:49;;;;;;;2.67;0.88;;;19.80;61.40;;;;;;4980636;28;20057;-52
2023/04/25 00:36:15;;;;;;;1.50;0.75;;;19.80;61.30;;;;;;4975428;28;20117;-50
2023/04/25 00:38:41;;;;;;;1.38;1.10;;;19.80;61.40;;;;;;4973053;28;20051;-50
2023/04/25 00:41:07;;;;;;;1.52;0.90;;;19.80;61.30;;;;;;4971552;28;20041;-54
2023/04/25 00:43:33;;;;;;;1.80;1.13;;;19.80;61.30;;;;;;4971879;28;20085;-53
2023/04/25 00:46:00;;;;;;;1.38;0.90;;;19.70;61.30;;;;;;4974996;28;20671;-53
2023/04/25 00:48:26;;;;;;;1.30;0.98;;;19.80;61.30;;;;;;4971283;28;20081;-50
2023/04/25 00:50:59;;;;;;;1.13;1.00;;;19.80;61.30;;;;;;4980946;28;20546;-52
2023/04/25 00:53:27;;;;;;;2.63;1.10;;;19.70;61.20;;;;;;4975045;28;20054;-53
2023/04/25 00:55:53;;;;;;;1.20;0.88;;;19.80;61.30;;;;;;4975227;28;20052;-51
2023/04/25 00:58:22;;;;;;;1.15;0.93;;;19.80;61.30;;;;;;4977913;28;20091;-52
2023/04/25 01:00:49;;;;;;;1.20;0.95;;;19.80;61.30;;;;;;4977508;28;20041;-50
2023/04/25 01:03:17;;;;;;;1.45;1.20;;;19.70;61.20;;;;;;4972105;28;20124;-54
2023/04/25 01:05:43;;;;;;;1.13;1.02;;;19.80;61.30;;;;;;4972114;28;20053;-52
2023/04/25 01:08:09;;;;;;;3.42;0.90;;;19.80;61.30;;;;;;4972194;28;20406;-50
2023/04/25 01:10:35;;;;;;;1.52;0.90;;;19.80;61.30;;;;;;4969567;28;20034;-51
2023/04/25 01:13:01;;;;;;;1.10;1.00;;;19.80;61.20;;;;;;4972463;28;20073;-55
2023/04/25 01:15:26;;;;;;;1.23;0.90;;;19.70;61.20;;;;;;4973216;28;20041;-52
2023/04/25 01:17:52;;;;;;;3.83;0.90;;;19.80;61.20;;;;;;4971179;28;20121;-54
2023/04/25 01:20:22;;;;;;;2.63;1.05;;;19.70;61.10;;;;;;4975780;28;20030;-52
2023/04/25 01:22:47;;;;;;;1.25;1.00;;;19.70;61.20;;;;;;4976147;28;20038;-53
2023/04/25 01:25:13;;;;;;;3.15;1.40;;;19.70;61.10;;;;;;4974034;28;20037;-54
2023/04/25 01:27:39;;;;;;;0.93;0.80;;;19.70;61.10;;;;;;4972532;28;20027;-49
2023/04/25 01:30:07;;;;;;;0.93;0.82;;;19.70;61.10;;;;;;4974326;28;20547;-51
2023/04/25 01:32:38;;;;;;;2.60;1.15;;;19.70;61.10;;;;;;4978155;28;20198;-51
2023/04/25 01:35:09;;;;;;;1.60;0.80;;;19.70;61.10;;;;;;4974558;28;20042;-48
2023/04/25 01:37:38;;;;;;;2.17;1.30;;;19.70;61.10;;;;;;4986128;28;20023;-52
2023/04/25 01:40:05;;;;;;;2.72;1.13;;;19.70;61.10;;;;;;4971585;28;20030;-51
2023/04/25 01:42:32;;;;;;;1.35;1.00;;;19.70;61.20;;;;;;4970731;28;20034;-52
2023/04/25 01:44:57;;;;;;;1.92;1.00;;;19.70;61.10;;;;;;4975935;28;20121;-50
2023/04/25 01:47:23;;;;;;;1.20;1.10;;;19.70;61.00;;;;;;4966739;28;20117;-51
2023/04/25 01:49:48;;;;;;;1.17;1.08;;;19.70;61.00;;;;;;4980172;28;20396;-52
2023/04/25 01:52:14;;;;;;;2.22;1.75;;;19.70;61.00;;;;;;4977251;28;20034;-50
2023/04/25 01:54:43;;;;;;;0.80;0.80;;;19.70;61.00;;;;;;4972938;28;20188;-53
2023/04/25 01:57:09;;;;;;;4.22;1.45;;;19.60;61.00;;;;;;4971919;28;20120;-54
2023/04/25 01:59:35;;;;;;;1.60;0.95;;;19.60;60.90;;;;;;4973991;28;20035;-53
2023/04/25 02:02:03;;;;;;;2.25;0.85;;;19.70;61.00;;;;;;4973963;28;20038;-53
2023/04/25 02:04:29;;;;;;;1.13;0.95;;;19.60;60.80;;;;;;4975425;28;20041;-52
2023/04/25 02:06:55;;;;;;;2.85;1.02;;;19.60;60.90;;;;;;4973007;28;20485;-52
2023/04/25 02:09:20;;;;;;;1.33;1.10;;;19.60;60.80;;;;;;4969462;28;20054;-52
2023/04/25 02:11:46;;;;;;;1.90;1.52;;;19.60;60.80;;;;;;4972449;28;20050;-49
2023/04/25 02:14:11;;;;;;;2.10;1.40;;;19.60;60.80;;;;;;4974127;28;20516;-54
2023/04/25 02:16:38;;;;;;;2.35;1.00;;;19.60;60.90;;;;;;4967874;28;20378;-54
2023/04/25 02:19:03;;;;;;;1.25;1.02;;;19.60;60.80;;;;;;4974599;28;20039;-57
2023/04/25 02:21:30;;;;;;;0.98;0.98;;;19.60;60.80;;;;;;4976396;28;20040;-54
2023/04/25 02:23:56;;;;;;;1.38;1.00;;;19.60;60.80;;;;;;4976667;28;20511;-51
2023/04/25 02:26:21;;;;;;;1.55;0.95;;;19.60;60.80;;;;;;4973230;28;20126;-54
2023/04/25 02:28:47;;;;;;;2.88;1.10;;;19.60;60.70;;;;;;4977879;28;20061;-53
2023/04/25 02:31:12;;;;;;;2.22;1.45;;;19.60;60.80;;;;;;4977172;28;20613;-54
2023/04/25 02:33:37;;;;;;;1.92;1.30;;;19.60;60.80;;;;;;4976598;28;20046;-52
2023/04/25 02:36:03;;;;;;;1.75;1.00;;;19.50;60.80;;;;;;4976301;28;20080;-51
2023/04/25 02:38:29;;;;;;;1.15;1.00;;;19.60;60.80;;;;;;4971565;28;20039;-53
2023/04/25 02:40:54;;;;;;;1.25;1.00;;;19.60;60.80;;;;;;4976324;28;20463;-51
2023/04/25 02:43:20;;;;;;;1.52;0.90;;;19.60;60.70;;;;;;4975093;28;20484;-53
2023/04/25 02:45:45;;;;;;;2.03;1.20;;;19.60;60.80;;;;;;4991450;28;20038;-49
2023/04/25 02:48:11;;;;;;;2.15;1.20;;;19.60;60.80;;;;;;4977750;28;20129;-50
2023/04/25 02:50:36;;;;;;;1.65;1.20;;;19.60;60.80;;;;;;4981592;28;20030;-51
2023/04/25 02:53:02;;;;;;;1.23;1.13;;;19.50;60.70;;;;;;4979849;28;20061;-52
2023/04/25 02:55:27;;;;;;;1.80;1.40;;;19.50;60.80;;;;;;4978566;28;20022;-50
2023/04/25 02:57:55;;;;;;;1.05;1.00;;;19.60;60.70;;;;;;4979456;28;20057;-52
2023/04/25 03:00:21;;;;;;;1.77;1.20;;;19.50;60.70;;;;;;4975236;28;20030;-52
2023/04/25 03:02:46;;;;;;;1.30;1.20;;;19.50;60.70;;;;;;4980171;28;20037;-52
2023/04/25 03:05:12;;;;;;;1.38;0.90;;;19.60;60.80;;;;;;4974272;28;20042;-49
2023/04/25 03:07:39;;;;;;;1.15;1.05;;;19.50;60.70;;;;;;4971515;28;20034;-54
2023/04/25 03:10:06;;;;;;;1.33;1.23;;;19.50;60.70;;;;;;4974503;28;20058;-52
2023/04/25 03:12:31;;;;;;;1.40;1.27;;;19.50;60.60;;;;;;4973820;28;20034;-53
2023/04/25 03:14:57;;;;;;;1.38;1.02;;;19.50;60.70;;;;;;4972159;28;20282;-50
2023/04/25 03:17:22;;;;;;;1.35;1.25;;;19.50;60.70;;;;;;4974329;28;20027;-52
2023/04/25 03:19:48;;;;;;;1.25;0.95;;;19.50;60.70;;;;;;4980344;28;20034;-51
2023/04/25 03:22:13;;;;;;;2.60;1.30;;;19.50;60.70;;;;;;4976773;28;20030;-52
2023/04/25 03:24:39;;;;;;;1.45;1.35;;;19.50;60.70;;;;;;4977142;28;20065;-52
2023/04/25 03:27:05;;;;;;;1.75;1.25;;;19.50;60.60;;;;;;4978089;28;20046;-54
2023/04/25 03:29:31;;;;;;;1.42;1.20;;;19.50;60.60;;;;;;4975517;28;20518;-53
2023/04/25 03:31:56;;;;;;;1.00;0.90;;;19.50;60.70;;;;;;4977235;28;20454;-51
2023/04/25 03:34:22;;;;;;;1.80;1.17;;;19.50;60.70;;;;;;4973912;28;20034;-54
2023/04/25 03:36:47;;;;;;;1.73;1.42;;;19.50;60.60;;;;;;4973058;28;20048;-53
2023/04/25 03:39:13;;;;;;;1.33;1.10;;;19.50;60.60;;;;;;4973581;28;20026;-50
2023/04/25 03:41:38;;;;;;;1.58;1.35;;;19.50;60.70;;;;;;4975315;28;20042;-51
2023/04/25 03:44:04;;;;;;;1.52;1.30;;;19.50;60.60;;;;;;4976989;28;20193;-53
2023/04/25 03:46:29;;;;;;;2.80;1.95;;;19.40;60.60;;;;;;4976233;28;20027;-54
2023/04/25 03:48:55;;;;;;;1.75;1.17;;;19.40;60.60;;;;;;4986016;28;20034;-50
2023/04/25 03:51:20;;;;;;;1.65;1.20;;;19.40;60.60;;;;;;4981169;28;20046;-51
2023/04/25 03:53:46;;;;;;;1.85;1.30;;;19.40;60.60;;;;;;4977146;28;20042;-53
2023/04/25 03:56:11;;;;;;;1.20;1.10;;;19.40;60.60;;;;;;4981938;28;20062;-52
2023/04/25 03:58:37;;;;;;;1.27;1.10;;;19.40;60.50;;;;;;4979867;28;20035;-53
2023/04/25 04:01:07;;;;;;;1.65;1.40;;;19.40;60.60;;;;;;4978559;28;20080;-53
2023/04/25 04:03:34;;;;;;;2.25;1.52;;;19.40;60.60;;;;;;4978902;28;20400;-48
2023/04/25 04:05:59;;;;;;;1.70;1.30;;;19.40;60.60;;;;;;5018216;23;20038;-53
2023/04/25 04:08:25;;;;;;;1.23;1.13;;;19.40;60.60;;;;;;5012058;28;20030;-54
2023/04/25 04:10:50;;;;;;;1.65;1.08;;;19.40;60.60;;;;;;5013176;28;20063;-52
2023/04/25 04:13:16;;;;;;;1.63;1.50;;;19.40;60.50;;;;;;5010856;28;20597;-50
2023/04/25 04:15:41;;;;;;;1.73;1.20;;;19.40;60.50;;;;;;5016305;28;20036;-51
2023/04/25 04:18:07;;;;;;;1.25;0.98;;;19.40;60.50;;;;;;5020370;28;20222;-53
2023/04/25 04:20:32;;;;;;;1.88;1.23;;;19.40;60.50;;;;;;5018145;28;20065;-52
2023/04/25 04:22:58;;;;;;;2.88;1.92;;;19.40;60.50;;;;;;5017181;28;20030;-50
2023/04/25 04:25:24;;;;;;;2.05;1.42;;;19.40;60.50;;;;;;5015367;28;20069;-54
2023/04/25 04:27:54;;;;;;;1.60;1.10;;;19.40;60.50;;;;;;5022087;28;20024;-50
2023/04/25 04:30:21;;;;;;;2.83;1.20;;;19.40;60.40;;;;;;5017985;28;20033;-53
2023/04/25 04:32:48;;;;;;;3.28;1.30;;;19.40;60.50;;;;;;5014810;28;20037;-52
2023/04/25 04:35:14;;;;;;;1.70;1.27;;;19.40;60.70;;;;;;5012449;28;20538;-51
2023/04/25 04:37:39;;;;;;;2.75;1.45;;;19.40;60.70;;;;;;5010393;28;20043;-50
2023/04/25 04:40:06;;;;;;;5.55;1.40;;;19.40;60.70;;;;;;5011992;28;20022;-52
2023/04/25 04:42:32;;;;;;;2.55;1.30;;;19.40;60.70;;;;;;5016600;28;20483;-54
2023/04/25 04:44:58;;;;;;;3.08;1.10;;;19.40;60.70;;;;;;5015277;28;20059;-53
2023/04/25 04:47:25;;;;;;;2.75;1.30;;;19.40;60.70;;;;;;5016456;28;20517;-55
2023/04/25 04:49:51;;;;;;;3.20;1.73;;;19.40;60.70;;;;;;5019918;28;20064;-54
2023/04/25 04:52:16;;;;;;;3.00;1.20;;;19.40;60.70;;;;;;5017019;28;20324;-52
2023/04/25 04:54:42;;;;;;;5.38;1.60;;;19.40;60.70;;;;;;5018594;28;20038;-51
2023/04/25 04:57:07;;;;;;;4.22;1.70;;;19.30;61.40;;;;;;5019233;28;20030;-50
2023/04/25 04:59:33;;;;;;;6.55;2.22;;;19.40;60.80;;;;;;5014530;28;20030;-52
2023/04/25 05:01:58;;;;;;;3.08;1.83;;;19.40;60.80;;;;;;5013858;28;20300;-52
2023/04/25 05:04:24;;;;;;;8.88;2.30;;;19.30;60.70;;;;;;5013259;28;20033;-52
2023/04/25 05:06:49;;;;;;;4.65;1.60;;;19.30;60.70;;;;;;5010789;28;20604;-52
2023/04/25 05:09:15;;;;;;;13.07;1.83;;;19.40;60.70;;;;;;5014075;28;20445;-52
2023/04/25 05:11:40;;;;;;;4.50;1.70;;;19.40;60.70;;;;;;5012838;28;20112;-52
2023/04/25 05:14:06;;;;;;;7.78;2.03;;;19.40;60.70;;;;;;5012387;28;20041;-49
2023/04/25 05:16:31;;;;;;;6.43;1.83;;;19.40;60.70;;;;;;5019443;28;20053;-50
2023/04/25 05:18:57;;;;;;;14.23;2.58;;;19.40;60.70;;;;;;5019073;28;20041;-54
2023/04/25 05:21:22;;;;;;;8.60;1.95;;;19.40;60.80;;;;;;5015184;28;20029;-51
2023/04/25 05:23:49;;;;;;;9.02;2.38;;;19.40;60.80;;;;;;5023845;28;20045;-51
2023/04/25 05:26:14;;;;;;;11.32;1.92;;;19.40;60.90;;;;;;5020680;28;20583;-54
2023/04/25 05:28:41;;;;;;;7.18;2.00;;;19.40;61.00;;;;;;5014664;28;20033;-51
2023/04/25 05:31:07;;;;;;;8.88;1.85;;;19.40;61.10;;;;;;5014338;28;20061;-54
2023/04/25 05:33:32;;;;;;;16.77;2.75;;;19.40;61.10;;;;;;5010756;28;20065;-49
2023/04/25 05:35:58;;;;;;;14.45;3.05;;;19.40;61.30;;;;;;5008422;28;20037;-53
2023/04/25 05:38:23;;;;;;;15.95;2.72;;;19.40;61.40;;;;;;5014014;28;20029;-54
2023/04/25 05:40:49;;;;;;;13.82;2.50;;;19.30;61.40;;;;;;5010565;28;20109;-52
2023/04/25 05:43:14;;;;;;;10.85;3.13;;;19.30;61.40;;;;;;5009325;28;20075;-51
2023/04/25 05:45:40;;;;;;;20.00;3.03;;;19.40;62.30;;;;;;5019339;28;20037;-50
2023/04/25 05:48:06;;;;;;;9.73;2.00;;;19.50;62.00;;;;;;5013073;28;20548;-51
2023/04/25 05:50:31;;;;;;;13.10;2.85;;;19.50;61.50;;;;;;5010868;28;20030;-51
2023/04/25 05:52:57;;;;;;;6.15;2.47;;;19.40;61.50;;;;;;5016735;28;20030;-51
2023/04/25 05:55:22;;;;;;;11.90;3.13;;;19.40;61.60;;;;;;5013729;28;20155;-51
2023/04/25 05:57:48;;;;;;;10.88;2.97;;;19.40;61.80;;;;;;5012547;28;20040;-49
2023/04/25 06:00:15;;;;;;;13.93;2.55;;;19.40;61.90;;;;;;5012587;28;20117;-50
2023/04/25 06:02:41;;;;;;;14.55;2.78;;;19.40;62.00;;;;;;5008685;28;20041;-52
2023/04/25 06:05:07;;;;;;;12.27;2.65;;;19.40;62.00;;;;;;5010442;28;20046;-53
2023/04/25 06:07:33;;;;;;;7.53;2.80;;;19.40;62.10;;;;;;5012389;28;20503;-50
2023/04/25 06:10:00;;;;;;;16.15;3.38;;;19.40;62.30;;;;;;5007384;28;20245;-50
2023/04/25 06:12:26;;;;;;;11.13;2.63;;;19.40;62.50;;;;;;5011761;28;20029;-51
2023/04/25 06:14:51;;;;;;;15.73;2.92;;;19.30;62.50;;;;;;5009529;28;20072;-49
2023/04/25 06:17:17;;;;;;;13.52;3.10;;;19.40;62.70;;;;;;5008045;28;20038;-50
2023/04/25 06:19:42;;;;;;;12.52;3.38;;;19.40;62.80;;;;;;5010803;28;20109;-53
2023/04/25 06:22:08;;;;;;;10.38;2.92;;;19.30;62.60;;;;;;5014040;28;20041;-51
2023/04/25 06:24:34;;;;;;;12.00;4.38;;;19.30;62.70;;;;;;5012883;28;20423;-52
2023/04/25 06:27:00;;;;;;;11.77;2.80;;;19.30;63.20;;;;;;5011645;28;20046;-51
2023/04/25 06:29:25;;;;;;;12.38;2.72;;;19.30;62.50;;;;;;5008159;28;20040;-49
2023/04/25 06:31:51;;;;;;;10.32;2.58;;;19.30;62.20;;;;;;5008262;28;20077;-54
2023/04/25 06:34:17;;;;;;;9.00;3.08;;;19.30;62.00;;;;;;5008573;28;20056;-52
2023/04/25 06:36:44;;;;;;;8.63;3.00;;;19.30;61.80;;;;;;5010983;28;20037;-51
2023/04/25 06:39:09;;;;;;;10.45;3.25;;;19.30;62.00;;;;;;5007409;28;20112;-51
2023/04/25 06:41:35;;;;;;;10.95;3.08;;;19.30;61.70;;;;;;5011751;28;20148;-50
2023/04/25 06:44:01;;;;;;;8.88;2.17;;;19.30;61.70;;;;;;5009680;28;20030;-50
2023/04/25 06:46:26;;;;;;;6.57;2.40;;;19.30;61.60;;;;;;5007992;28;20030;-51
2023/04/25 06:48:52;;;;;;;7.95;2.20;;;19.30;61.60;;;;;;5010681;28;20045;-52
2023/04/25 06:51:18;;;;;;;6.68;2.40;;;19.30;61.60;;;;;;5015152;28;20346;-52
2023/04/25 06:53:43;;;;;;;8.05;2.38;;;19.30;61.60;;;;;;5012341;28;20128;-50
2023/04/25 06:56:09;;;;;;;7.03;2.05;;;19.30;61.60;;;;;;5012503;28;20368;-51
2023/04/25 06:58:34;;;;;;;5.65;2.40;;;19.30;61.50;;;;;;5010197;28;20503;-49
2023/04/25 07:01:00;;;;;;;8.13;3.42;;;19.30;61.40;;;;;;5012961;28;20065;-53
2023/04/25 07:03:25;;;;;;;7.80;2.60;;;19.20;61.30;;;;;;5006891;28;20092;-51
2023/04/25 07:05:51;;;;;;;5.97;2.63;;;19.30;61.40;;;;;;5007849;28;20091;-50
2023/04/25 07:08:16;;;;;;;4.00;2.15;;;19.20;61.30;;;;;;5007595;28;20029;-50
2023/04/25 07:10:42;;;;;;;5.95;2.03;;;19.30;61.30;;;;;;5015456;28;20036;-49
2023/04/25 07:13:08;;;;;;;3.95;1.98;;;19.30;61.20;;;;;;5011056;28;20125;-51
2023/04/25 07:15:33;;;;;;;6.20;2.20;;;19.30;61.20;;;;;;5010527;28;20112;-53
2023/04/25 07:17:59;;;;;;;6.95;2.40;;;19.20;61.10;;;;;;5015336;28;20398;-50
2023/04/25 07:20:24;;;;;;;5.70;2.60;;;19.20;61.10;;;;;;5015081;28;20447;-52
2023/04/25 07:22:50;;;;;;;7.47;2.53;;;19.20;61.10;;;;;;5015324;28;20160;-51
2023/04/25 07:25:16;;;;;;;5.15;2.05;;;19.20;61.10;;;;;;5016530;28;20183;-53
2023/04/25 07:27:42;;;;;;;6.13;2.28;;;19.20;61.10;;;;;;5012754;28;20034;-50
2023/04/25 07:30:08;;;;;;;2.65;1.95;;;19.20;61.10;;;;;;5011544;28;20305;-50
2023/04/25 07:32:34;;;;;;;3.90;1.75;;;19.20;61.10;;;;;;5014096;28;20040;-53
2023/04/25 07:34:59;;;;;;;4.68;1.73;;;19.20;61.00;;;;;;5011962;28;20037;-50
2023/04/25 07:37:25;;;;;;;5.57;2.22;;;19.20;61.00;;;;;;5011861;28;20459;-51
2023/04/25 07:39:51;;;;;;;4.38;1.85;;;19.20;61.00;;;;;;5019259;28;20044;-49
2023/04/25 07:42:16;;;;;;;4.82;1.88;;;19.20;61.00;;;;;;5019160;28;20029;-52
2023/04/25 07:44:42;;;;;;;4.22;2.03;;;19.20;60.90;;;;;;5014335;28;20470;-50
2023/04/25 07:47:08;;;;;;;5.85;2.08;;;19.20;61.00;;;;;;5015695;28;20026;-51
2023/04/25 07:49:35;;;;;;;4.18;1.70;;;19.20;61.00;;;;;;5017368;28;20037;-53
2023/04/25 07:52:01;;;;;;;6.68;1.90;;;19.20;61.30;;;;;;5018971;28;20032;-53
2023/04/25 07:54:27;;;;;;;4.38;1.88;;;19.30;61.50;;;;;;5014371;28;20046;-55
2023/04/25 07:56:52;;;;;;;6.32;2.15;;;19.30;61.40;;;;;;5010165;28;20033;-53
2023/04/25 07:59:18;;;;;;;3.70;1.50;;;19.30;61.30;;;;;;5012564;28;20025;-56
2023/04/25 08:01:43;;;;;;;2.88;1.73;;;19.40;61.40;;;;;;5014384;28;20422;-52
2023/04/25 08:04:09;;;;;;;3.00;1.70;;;19.40;61.40;;;;;;5010914;28;20160;-52
2023/04/25 08:06:34;;;;;;;11.15;1.88;;;19.40;61.50;;;;;;5013982;28;20087;-49
2023/04/25 08:09:00;;;;;;;4.22;1.40;;;19.50;61.60;;;;;;5021367;28;20457;-55
2023/04/25 08:11:26;;;;;;;4.28;1.38;;;19.50;61.40;;;;;;5021886;28;20049;-52
2023/04/25 08:13:51;;;;;;;3.65;2.17;;;19.50;61.30;;;;;;5022178;28;20041;-54
2023/04/25 08:16:17;;;;;;;2.83;1.17;;;19.50;61.30;;;;;;5024253;28;20037;-51
2023/04/25 08:18:42;;;;;;;3.03;1.40;;;19.50;61.30;;;;;;5021756;28;20033;-51
2023/04/25 08:21:11;;;;;;;3.10;1.42;;;19.50;61.30;;;;;;5021621;28;20325;-51
2023/04/25 08:23:36;;;;;;;1.80;1.15;;;19.50;61.20;;;;;;5021917;28;20026;-48
2023/04/25 08:26:02;;;;;;;2.53;1.10;;;19.50;61.20;;;;;;5022705;28;20064;-50
2023/04/25 08:28:28;;;;;;;1.77;1.15;;;19.50;61.10;;;;;;5021758;28;20033;-50
2023/04/25 08:30:54;;;;;;;2.83;1.45;;;19.50;61.10;;;;;;5021364;28;20273;-49
2023/04/25 08:33:19;;;;;;;2.40;1.42;;;19.50;61.10;;;;;;5020547;28;20112;-50
2023/04/25 08:35:45;;;;;;;3.03;0.93;;;19.50;61.10;;;;;;5021254;28;20483;-52
2023/04/25 08:38:10;;;;;;;4.70;1.60;;;19.50;61.10;;;;;;5021594;28;20494;-49
2023/04/25 08:40:39;;;;;;;4.10;1.15;;;19.50;61.10;;;;;;5022244;28;20030;-52
2023/04/25 08:43:11;;;;;;;2.83;1.48;;;19.50;61.00;;;;;;5020508;28;20026;-50
2023/04/25 08:45:40;;;;;;;2.17;1.50;;;19.50;61.20;;;;;;5014764;28;20084;-49
2023/04/25 08:48:11;;;;;;;2.90;1.30;;;19.50;61.40;;;;;;5015768;28;20040;-51
2023/04/25 08:50:51;;;;;;;7.05;1.65;;;19.60;61.50;;;;;;5011589;28;20030;-50
2023/04/25 08:53:25;;;;;;;2.10;1.15;;;19.60;61.60;;;;;;4984737;28;20458;-52
2023/04/25 08:55:53;;;;;;;7.40;1.30;;;19.70;61.60;;;;;;4990808;28;20036;-52
2023/04/25 08:58:19;;;;;;;3.65;0.93;;;19.70;61.70;;;;;;5016631;28;20033;-52
2023/04/25 09:00:46;;;;;;;2.65;1.10;;;19.70;61.70;;;;;;5017986;28;20049;-54
2023/04/25 09:03:12;;;;;;;2.33;1.08;;;19.80;61.70;;;;;;5024017;28;20029;-51
2023/04/25 09:05:40;;;;;;;5.45;1.40;;;19.70;61.70;;;;;;5016660;28;20063;-51
2023/04/25 09:08:05;;;;;;;3.08;1.30;;;19.80;61.80;;;;;;5020237;28;20439;-52
2023/04/25 09:10:31;;;;;;;3.67;1.55;;;19.80;61.80;;;;;;5021661;28;20030;-53
2023/04/25 09:13:08;;;;;;;3.30;1.20;;;19.80;61.80;;;;;;5021576;28;20418;-50
2023/04/25 09:15:51;;;;;;;2.80;0.90;;;19.80;61.70;;;;;;5021564;28;20037;-51
2023/04/25 09:18:26;;;;;;;3.25;1.40;;;19.90;61.80;;;;;;5017613;28;20028;-49
2023/04/25 09:21:06;;;;;;;3.83;1.20;;;19.90;61.70;;;;;;5020047;28;20030;-49
2023/04/25 09:23:43;;;;;;;2.53;1.23;;;19.80;61.60;;;;;;5021732;28;20487;-52
2023/04/25 09:26:09;;;;;;;3.20;1.38;;;19.80;61.60;;;;;;5015748;28;20135;-49
2023/04/25 09:28:35;;;;;;;2.88;1.30;;;19.80;61.60;;;;;;5021219;28;20448;-52
2023/04/25 09:31:01;;;;;;;3.00;1.20;;;19.80;61.60;;;;;;5022222;28;20090;-50
2023/04/25 09:33:29;;;;;;;1.48;1.20;;;19.80;61.60;;;;;;5023586;28;20190;-53
2023/04/25 09:36:05;;;;;;;1.48;1.13;;;19.80;61.60;;;;;;5019855;28;20037;-51
2023/04/25 09:38:32;;;;;;;3.10;1.15;;;19.80;61.50;;;;;;5021382;28;20280;-52
2023/04/25 09:40:58;;;;;;;2.70;1.23;;;19.80;61.60;;;;;;5019892;28;20034;-50
2023/04/25 09:43:24;;;;;;;1.58;1.10;;;19.80;61.60;;;;;;5019086;28;20025;-54
2023/04/25 09:45:52;;;;;;;2.40;1.20;;;19.80;61.50;;;;;;5020560;28;20033;-50
2023/04/25 09:48:20;;;;;;;1.95;1.23;;;19.80;61.50;;;;;;5018107;28;20552;-51
2023/04/25 09:51:05;;;;;;;2.85;1.63;;;19.80;61.50;;;;;;5022073;28;20337;-51
2023/04/25 09:53:32;;;;;;;2.25;1.20;;;19.80;61.50;;;;;;5020663;28;20121;-52
2023/04/25 09:56:00;;;;;;;4.40;1.60;;;19.80;61.50;;;;;;5020819;28;20124;-55
2023/04/25 09:58:29;;;;;;;3.22;1.52;;;19.80;61.60;;;;;;5019978;28;20553;-55
2023/04/25 10:00:58;;;;;;;6.05;1.83;;;19.80;61.60;;;;;;5019879;28;20045;-50
2023/04/25 10:03:25;;;;;;;5.68;1.42;;;19.70;61.60;;;;;;5020553;28;20511;-49
2023/04/25 10:05:52;;;;;;;3.60;1.38;;;19.80;61.60;;;;;;5019753;28;20128;-51
2023/04/25 10:08:18;;;;;;;4.53;1.40;;;19.70;61.60;;;;;;5020079;28;20503;-53
2023/04/25 10:10:44;;;;;;;4.68;1.08;;;19.70;61.60;;;;;;5019897;28;20557;-49
2023/04/25 10:13:11;;;;;;;3.00;1.60;;;19.70;61.60;;;;;;5019695;28;20029;-50
2023/04/25 10:15:37;;;;;;;2.38;1.50;;;19.70;61.60;;;;;;5020502;28;20498;-52
2023/04/25 10:18:03;;;;;;;4.50;1.40;;;19.70;61.60;;;;;;5017760;28;20679;-51
2023/04/25 10:20:29;;;;;;;2.08;1.30;;;19.70;61.70;;;;;;5020070;28;20085;-51
2023/04/25 10:23:02;;;;;;;2.20;1.45;;;19.70;61.70;;;;;;5012517;28;20125;-56
2023/04/25 10:25:28;;;;;;;3.58;1.30;;;19.70;61.70;;;;;;5020389;28;20036;-50
2023/04/25 10:27:53;;;;;;;4.18;1.50;;;19.70;61.70;;;;;;5019173;28;20390;-59
2023/04/25 10:30:19;;;;;;;2.70;1.40;;;19.60;61.70;;;;;;5024538;28;20091;-54
2023/04/25 10:32:45;;;;;;;2.35;1.02;;;19.60;61.70;;;;;;5018715;28;20061;-51
2023/04/25 10:35:16;;;;;;;1.85;1.25;;;19.60;61.70;;;;;;5019904;28;20445;-51
2023/04/25 10:38:03;;;;;;;4.35;1.83;;;19.60;61.70;;;;;;5019155;28;20101;-53
2023/04/25 10:40:28;;;;;;;4.53;1.20;;;19.60;61.70;;;;;;5014643;28;20061;-51
2023/04/25 10:42:55;;;;;;;4.03;1.35;;;19.60;61.90;;;;;;5018838;28;20125;-51
2023/04/25 10:45:21;;;;;;;2.40;1.30;;;19.60;61.70;;;;;;5020330;28;20463;-52
2023/04/25 10:47:47;;;;;;;3.55;1.52;;;19.60;61.70;;;;;;5019107;28;21408;-50
2023/04/25 10:50:16;;;;;;;3.50;1.30;;;19.50;61.70;;;;;;5020613;28;20396;-52
2023/04/25 10:52:41;;;;;;;12.70;1.70;;;19.50;61.60;;;;;;5020230;28;20045;-51
2023/04/25 10:55:07;;;;;;;2.85;1.77;;;19.50;61.60;;;;;;5020051;28;20060;-51
2023/04/25 10:57:38;;;;;;;1.90;1.40;;;19.60;61.70;;;;;;5021057;28;20029;-49
2023/04/25 11:00:18;;;;;;;3.08;1.88;;;19.60;61.70;;;;;;5023758;28;20541;-53
2023/04/25 11:02:44;;;;;;;2.03;1.52;;;19.50;61.60;;;;;;5023830;28;21808;-48
2023/04/25 11:05:15;;;;;;;2.83;1.60;;;19.50;61.60;;;;;;5019964;28;20034;-49
2023/04/25 11:07:52;;;;;;;2.63;1.50;;;19.50;61.50;;;;;;5023063;28;20037;-51
2023/04/25 11:10:19;;;;;;;3.72;1.30;;;19.50;61.50;;;;;;5021671;28;20048;-50
2023/04/25 11:12:45;;;;;;;4.63;1.50;;;19.50;61.60;;;;;;5024011;28;20402;-49
2023/04/25 11:15:11;;;;;;;1.92;1.65;;;19.50;61.50;;;;;;5019756;28;20121;-51
2023/04/25 11:17:36;;;;;;;2.25;1.50;;;19.50;61.60;;;;;;5023736;28;20116;-49
2023/04/25 11:20:07;;;;;;;2.90;1.23;;;19.50;61.60;;;;;;5023512;28;20029;-52
2023/04/25 11:22:33;;;;;;;3.30;1.58;;;19.50;61.60;;;;;;5023013;28;20045;-49
2023/04/25 11:25:05;;;;;;;1.98;1.58;;;19.50;61.60;;;;;;5022654;28;20040;-53
2023/04/25 11:27:31;;;;;;;4.43;1.50;;;19.50;61.60;;;;;;5021353;28;20026;-52
2023/04/25 11:29:56;;;;;;;2.03;1.42;;;19.40;61.60;;;;;;5023463;28;20033;-50
2023/04/25 11:32:22;;;;;;;2.22;1.30;;;19.40;61.60;;;;;;5023994;28;20084;-51
2023/04/25 11:34:47;;;;;;;2.60;1.50;;;19.40;61.50;;;;;;5022966;28;20047;-52
2023/04/25 11:37:13;;;;;;;3.10;1.52;;;19.40;61.50;;;;;;5022327;28;20035;-53
2023/04/25 11:39:43;;;;;;;1.90;1.52;;;19.40;61.50;;;;;;5022680;28;20414;-53
2023/04/25 11:42:09;;;;;;;4.13;1.67;;;19.40;61.50;;;;;;5023380;28;20041;-51
2023/04/25 11:44:35;;;;;;;2.22;1.40;;;19.40;61.50;;;;;;5024410;28;20483;-51
2023/04/25 11:47:01;;;;;;;2.10;1.55;;;19.40;61.50;;;;;;5021349;28;20052;-49
2023/04/25 11:49:31;;;;;;;2.75;1.38;;;19.40;61.50;;;;;;5019932;28;20487;-51
2023/04/25 11:51:56;;;;;;;2.60;1.77;;;19.40;61.60;;;;;;5014997;28;20069;-49
2023/04/25 11:54:22;;;;;;;4.03;2.10;;;19.40;61.60;;;;;;5017299;28;20113;-52
2023/04/25 11:56:48;;;;;;;3.38;1.55;;;19.40;61.80;;;;;;5009256;28;20043;-50
2023/04/25 11:59:14;;;;;;;5.32;1.70;;;19.50;61.70;;;;;;5012273;28;20037;-49
2023/04/25 12:01:41;;;;;;;3.53;1.90;;;19.50;61.70;;;;;;5017359;28;20034;-53
2023/04/25 12:04:11;;;;;;;3.08;1.50;;;19.60;61.70;;;;;;5015498;28;20668;-52
2023/04/25 12:06:39;;;;;;;2.65;1.38;;;19.60;61.60;;;;;;5018685;28;20076;-50
2023/04/25 12:09:08;;;;;;;4.13;1.95;;;19.70;61.70;;;;;;5015606;28;20664;-51
2023/04/25 12:11:44;;;;;;;2.25;1.40;;;19.70;61.70;;;;;;5016990;28;20490;-52
2023/04/25 12:14:10;;;;;;;3.20;1.60;;;19.70;61.60;;;;;;5015964;28;20043;-51
2023/04/25 12:16:43;;;;;;;3.60;1.60;;;19.80;61.70;;;;;;5018052;28;20030;-51
2023/04/25 12:19:08;;;;;;;3.42;1.67;;;19.80;61.90;;;;;;5015567;28;20483;-51
2023/04/25 12:21:34;;;;;;;2.78;1.42;;;19.70;61.80;;;;;;5013890;28;20040;-51
2023/04/25 12:24:17;;;;;;;3.72;1.38;;;19.70;61.60;;;;;;5010618;28;20038;-50
2023/04/25 12:26:54;;;;;;;2.38;1.35;;;19.70;61.80;;;;;;5008637;28;20034;-49
2023/04/25 12:29:24;;;;;;;4.00;1.30;;;19.80;61.90;;;;;;5016128;28;20061;-51
2023/04/25 12:31:51;;;;;;;2.85;1.60;;;19.90;61.90;;;;;;5019749;28;20068;-51
2023/04/25 12:34:21;;;;;;;2.05;1.30;;;19.90;61.90;;;;;;5018101;28;20041;-52
2023/04/25 12:36:48;;;;;;;6.57;1.55;;;20.00;62.00;;;;;;5020978;28;20040;-50
2023/04/25 12:39:22;;;;;;;3.20;1.25;;;20.00;61.90;;;;;;5015360;28;20033;-52
2023/04/25 12:41:48;;;;;;;3.17;1.30;;;20.00;61.90;;;;;;5019750;28;20056;-52
2023/04/25 12:44:14;;;;;;;2.55;1.33;;;20.00;61.80;;;;;;5014622;28;20034;-51